Time;durP1;ratioP1;P1;durP2;ratioP2;P2;SDS_P1;SDS_P2;PMS_P1;PMS_P2;Temp;Humidity;BMP_temperature;BMP_pressure;BME280_temperature;BME280_humidity;BME280_pressure;Samples;Min_cycle;Max_cycle;Signal;HPM_P1;HPM_P2
2022/12/25 00:01:22;;;;;;;33.08;9.95;;;3.60;99.90;;;;;;5090673;28;20047;-84
2022/12/25 00:03:49;;;;;;;31.10;10.23;;;3.60;99.90;;;;;;5108798;28;20066;-84
2022/12/25 00:06:16;;;;;;;48.70;10.00;;;3.50;99.90;;;;;;5075768;28;20040;-84
2022/12/25 00:08:44;;;;;;;42.70;10.80;;;3.60;99.90;;;;;;5075218;28;20492;-83
2022/12/25 00:11:13;;;;;;;34.03;10.13;;;3.60;99.90;;;;;;5087997;28;20123;-83
2022/12/25 00:13:40;;;;;;;36.10;10.55;;;3.60;99.90;;;;;;5105045;28;20086;-84
2022/12/25 00:16:09;;;;;;;30.27;10.63;;;3.60;99.90;;;;;;5088846;28;20508;-84
2022/12/25 00:18:35;;;;;;;33.72;10.13;;;4.00;99.90;;;;;;5105129;28;20132;-83
2022/12/25 00:21:04;;;;;;;52.25;12.18;;;4.20;99.90;;;;;;5072170;28;20125;-84
2022/12/25 00:23:32;;;;;;;40.67;11.82;;;3.70;99.90;;;;;;5105022;28;20511;-84
2022/12/25 00:26:04;;;;;;;51.75;12.55;;;3.70;99.90;;;;;;5105018;28;20037;-83
2022/12/25 00:28:31;;;;;;;66.45;12.00;;;3.80;99.90;;;;;;5108694;28;20071;-84
2022/12/25 00:30:57;;;;;;;41.63;12.38;;;3.70;99.90;;;;;;5092177;28;20037;-83
2022/12/25 00:33:25;;;;;;;42.42;11.82;;;3.70;99.90;;;;;;5076106;28;20066;-83
2022/12/25 00:35:59;;;;;;;38.80;11.73;;;3.70;99.90;;;;;;5092092;28;20744;-83
2022/12/25 00:38:26;;;;;;;48.05;10.80;;;3.70;99.90;;;;;;5092356;28;20148;-83
2022/12/25 00:40:53;;;;;;;57.10;12.18;;;3.80;99.90;;;;;;5108496;28;20044;-84
2022/12/25 00:43:20;;;;;;;44.97;12.00;;;3.80;99.90;;;;;;5075597;28;20048;-84
2022/12/25 00:45:57;;;;;;;52.47;12.05;;;3.70;99.90;;;;;;5091975;28;20119;-84
2022/12/25 00:48:27;;;;;;;50.83;12.23;;;3.80;99.90;;;;;;5091902;28;20098;-84
2022/12/25 00:50:56;;;;;;;64.93;13.00;;;3.80;99.90;;;;;;5092055;28;20036;-84
2022/12/25 00:53:23;;;;;;;45.28;12.48;;;3.80;99.90;;;;;;5075729;28;20048;-84
2022/12/25 00:55:55;;;;;;;59.30;12.68;;;3.80;99.90;;;;;;5108181;28;20052;-84
2022/12/25 00:58:24;;;;;;;74.20;13.75;;;3.90;99.90;;;;;;5108974;28;20033;-84
2022/12/25 01:00:51;;;;;;;47.72;13.40;;;3.90;99.90;;;;;;5091406;28;20043;-84
2022/12/25 01:03:18;;;;;;;41.83;12.40;;;4.00;99.90;;;;;;5108294;28;20048;-84
2022/12/25 01:06:01;;;;;;;47.70;12.40;;;3.90;99.90;;;;;;5095667;28;20054;-84
2022/12/25 01:08:34;;;;;;;47.35;12.65;;;3.90;99.90;;;;;;5111700;28;20044;-84
2022/12/25 01:11:06;;;;;;;46.75;13.68;;;3.90;99.90;;;;;;5111908;28;20040;-84
2022/12/25 01:13:35;;;;;;;38.97;11.52;;;3.90;99.90;;;;;;5111626;28;20404;-84
2022/12/25 01:16:09;;;;;;;39.53;12.48;;;3.90;99.90;;;;;;5108324;28;20111;-84
2022/12/25 01:18:36;;;;;;;50.92;13.60;;;3.90;99.90;;;;;;5075509;28;20098;-84
2022/12/25 01:21:07;;;;;;;50.05;11.85;;;3.90;99.90;;;;;;5091468;28;20040;-84
2022/12/25 01:23:35;;;;;;;39.83;12.63;;;3.90;99.90;;;;;;5075172;28;20318;-84
2022/12/25 01:26:06;;;;;;;73.60;12.88;;;3.90;99.90;;;;;;5107800;28;20052;-84
2022/12/25 01:28:32;;;;;;;46.38;12.40;;;3.80;99.90;;;;;;5091756;28;20045;-84
2022/12/25 01:30:59;;;;;;;42.53;11.68;;;3.80;99.90;;;;;;5091168;28;20040;-84
2022/12/25 01:33:26;;;;;;;44.00;12.15;;;4.10;99.90;;;;;;5090599;28;20814;-84
2022/12/25 01:35:53;;;;;;;40.13;11.55;;;3.90;99.90;;;;;;5077956;28;20406;-84
2022/12/25 01:38:20;;;;;;;35.25;11.65;;;3.80;99.90;;;;;;5111079;28;20040;-84
2022/12/25 01:40:46;;;;;;;43.30;11.85;;;3.70;99.90;;;;;;5108122;28;20044;-84
2022/12/25 01:43:32;;;;;;;43.92;12.18;;;3.70;99.90;;;;;;5091169;28;20447;-84
2022/12/25 01:46:02;;;;;;;46.08;12.27;;;3.80;99.90;;;;;;5107391;28;20036;-84
2022/12/25 01:48:31;;;;;;;35.17;11.43;;;3.80;99.90;;;;;;5091610;28;20127;-84
2022/12/25 01:51:00;;;;;;;30.38;10.85;;;3.70;99.90;;;;;;5091126;28;20040;-84
2022/12/25 01:53:28;;;;;;;39.97;11.63;;;4.00;99.90;;;;;;5090732;28;20412;-84
2022/12/25 01:55:59;;;;;;;31.95;11.77;;;3.70;99.90;;;;;;5074178;28;20181;-84
2022/12/25 01:58:27;;;;;;;46.53;11.57;;;3.80;99.90;;;;;;5090863;28;20127;-84
2022/12/25 02:00:53;;;;;;;29.45;11.82;;;3.80;99.90;;;;;;5088719;28;20126;-84
2022/12/25 02:03:21;;;;;;;49.05;12.38;;;3.80;99.90;;;;;;5110738;28;20537;-84
2022/12/25 02:05:48;;;;;;;33.42;10.05;;;3.70;99.90;;;;;;5094533;28;20048;-84
2022/12/25 02:08:17;;;;;;;57.20;11.27;;;3.70;99.90;;;;;;5093733;28;20052;-84
2022/12/25 02:10:44;;;;;;;40.17;10.95;;;3.90;99.90;;;;;;5100004;28;20115;-84
2022/12/25 02:13:13;;;;;;;37.40;11.40;;;3.90;99.90;;;;;;5103397;28;20437;-84
2022/12/25 02:16:12;;;;;;;29.90;10.07;;;3.70;99.90;;;;;;5127447;28;20816;-84
2022/12/25 02:18:45;;;;;;;37.53;11.15;;;3.70;99.90;;;;;;5110533;28;20044;-84
2022/12/25 02:21:26;;;;;;;41.30;10.93;;;3.80;99.90;;;;;;5110360;28;20043;-84
2022/12/25 02:24:02;;;;;;;44.20;11.43;;;3.90;99.90;;;;;;5093156;28;20500;-84
2022/12/25 02:27:03;;;;;;;70.57;12.40;;;3.90;99.90;;;;;;5107114;28;20055;-84
2022/12/25 02:30:03;;;;;;;38.83;11.68;;;4.00;99.90;;;;;;5125869;28;20492;-84
2022/12/25 02:32:31;;;;;;;54.85;12.23;;;4.10;99.90;;;;;;5127407;28;20043;-84
2022/12/25 02:35:08;;;;;;;42.53;12.40;;;4.30;99.90;;;;;;5127052;28;20032;-84
2022/12/25 02:37:51;;;;;;;62.25;12.73;;;4.30;99.90;;;;;;5127159;28;20500;-84
2022/12/25 02:40:23;;;;;;;52.85;12.57;;;4.40;99.90;;;;;;5109755;28;20088;-84
2022/12/25 03:06:41;;;;;;;52.72;13.43;;;4.80;99.90;;;;;;5106071;28;20139;-84
2022/12/25 03:12:48;;;;;;;45.30;12.65;;;4.90;99.90;;;;;;5105664;28;20520;-84
2022/12/25 03:18:11;;;;;;;71.53;13.35;;;5.00;99.90;;;;;;5107584;28;20059;-84
2022/12/25 03:28:58;;;;;;;65.10;12.63;;;5.30;99.90;;;;;;5106922;28;20045;-84
2022/12/25 03:31:28;;;;;;;68.88;13.98;;;5.30;99.90;;;;;;5072061;28;20052;-84
2022/12/25 03:47:09;;;;;;;63.78;13.82;;;5.50;99.90;;;;;;5087383;28;20040;-84
2022/12/25 04:36:22;;;;;;;41.50;12.25;;;5.80;99.90;;;;;;5114794;28;20039;-84
2022/12/25 04:38:48;;;;;;;56.58;13.13;;;5.90;99.90;;;;;;5095794;28;20051;-84
2022/12/25 04:41:15;;;;;;;43.70;12.02;;;6.00;99.90;;;;;;5078506;28;20079;-84
2022/12/25 04:43:42;;;;;;;56.65;13.05;;;6.00;99.90;;;;;;5095545;28;20047;-84
2022/12/25 04:46:08;;;;;;;51.97;13.07;;;6.10;99.90;;;;;;5079343;28;20046;-84
2022/12/25 04:48:35;;;;;;;60.80;12.85;;;6.00;99.90;;;;;;5095116;28;20043;-84
2022/12/25 04:51:15;;;;;;;55.65;12.48;;;6.00;99.90;;;;;;5095775;28;20044;-84
2022/12/25 04:53:43;;;;;;;48.03;12.13;;;6.10;99.90;;;;;;5093216;28;20056;-85
2022/12/25 04:56:10;;;;;;;48.03;12.88;;;6.10;99.90;;;;;;5092027;28;20123;-84
2022/12/25 04:58:36;;;;;;;50.75;12.95;;;6.20;99.90;;;;;;5075129;28;20481;-84
2022/12/25 05:01:03;;;;;;;47.60;13.40;;;6.20;99.90;;;;;;5075546;28;20040;-85
2022/12/25 05:03:31;;;;;;;54.72;12.88;;;6.20;99.90;;;;;;5105436;28;20044;-84
2022/12/25 05:05:58;;;;;;;41.08;13.77;;;6.30;99.90;;;;;;5128904;28;20036;-84
2022/12/25 05:08:25;;;;;;;56.38;14.05;;;6.30;99.90;;;;;;5111505;28;20074;-84
2022/12/25 05:10:52;;;;;;;59.28;13.80;;;6.30;99.90;;;;;;5095169;28;20044;-85
2022/12/25 05:13:18;;;;;;;55.55;14.60;;;6.30;99.90;;;;;;5069013;28;20067;-84
2022/12/25 05:15:45;;;;;;;66.88;14.40;;;6.40;99.90;;;;;;5066370;28;20533;-84
2022/12/25 05:18:12;;;;;;;51.72;14.50;;;6.40;99.90;;;;;;5091828;28;20067;-84
2022/12/25 05:20:39;;;;;;;59.15;14.82;;;6.40;99.90;;;;;;5074663;28;20055;-84
2022/12/25 05:23:05;;;;;;;68.25;15.60;;;6.50;99.90;;;;;;5075605;28;20832;-85
2022/12/25 05:25:32;;;;;;;71.43;15.00;;;6.50;99.90;;;;;;5091079;28;20072;-84
2022/12/25 05:27:59;;;;;;;61.63;16.30;;;6.60;99.90;;;;;;5091450;28;20511;-85
2022/12/25 05:30:25;;;;;;;62.55;16.10;;;6.50;99.90;;;;;;5090954;28;20186;-84
2022/12/25 05:32:52;;;;;;;59.80;15.90;;;6.60;99.90;;;;;;5091196;28;20076;-85
2022/12/25 05:35:18;;;;;;;64.50;15.43;;;6.60;99.90;;;;;;5074767;28;20040;-85
2022/12/25 05:37:45;;;;;;;63.70;16.23;;;6.60;99.90;;;;;;5074182;28;20098;-84
2022/12/25 05:40:12;;;;;;;76.65;16.20;;;6.60;99.90;;;;;;5074656;28;20047;-85
2022/12/25 05:42:39;;;;;;;67.78;16.33;;;6.70;99.90;;;;;;5074321;28;20044;-84
2022/12/25 05:45:06;;;;;;;60.00;14.55;;;6.70;99.90;;;;;;5074526;28;20408;-84
2022/12/25 05:47:32;;;;;;;56.05;15.68;;;6.70;99.90;;;;;;5107497;28;20043;-85
2022/12/25 05:49:59;;;;;;;59.65;16.10;;;6.70;99.90;;;;;;5074439;28;20045;-85
2022/12/25 05:52:30;;;;;;;66.40;16.58;;;6.80;99.90;;;;;;5074054;28;20489;-85
2022/12/25 05:54:58;;;;;;;87.60;17.05;;;6.80;99.90;;;;;;5117638;28;20093;-85
2022/12/25 05:57:28;;;;;;;87.28;16.55;;;6.80;99.90;;;;;;5094078;28;20044;-85
2022/12/25 05:59:55;;;;;;;59.53;16.95;;;6.80;99.90;;;;;;5094898;28;20110;-84
2022/12/25 06:02:23;;;;;;;77.50;16.30;;;6.80;99.90;;;;;;5111016;28;20039;-85
2022/12/25 06:04:49;;;;;;;80.70;17.73;;;6.80;99.90;;;;;;5110605;28;20036;-85
2022/12/25 06:07:16;;;;;;;72.10;17.17;;;6.90;99.90;;;;;;5090513;28;20456;-85
2022/12/25 06:09:43;;;;;;;68.38;16.52;;;6.90;99.90;;;;;;5093932;28;20036;-85
2022/12/25 06:12:09;;;;;;;75.63;17.20;;;6.90;99.90;;;;;;5074199;28;20064;-85
2022/12/25 06:14:36;;;;;;;76.07;16.35;;;6.90;99.90;;;;;;5091732;28;20512;-85
2022/12/25 06:17:03;;;;;;;91.32;17.98;;;6.90;99.90;;;;;;5110907;28;20036;-85
2022/12/25 06:19:30;;;;;;;74.65;17.58;;;7.00;99.90;;;;;;5093505;28;20416;-85
2022/12/25 06:21:57;;;;;;;77.70;16.70;;;7.00;99.90;;;;;;5110416;28;20036;-85
2022/12/25 06:24:23;;;;;;;101.75;18.65;;;7.00;99.90;;;;;;5092728;28;20066;-85
2022/12/25 06:26:50;;;;;;;100.38;18.48;;;7.00;99.90;;;;;;5086720;28;20073;-85
2022/12/25 06:29:17;;;;;;;98.47;18.50;;;7.00;99.90;;;;;;5090203;28;20033;-85
2022/12/25 06:31:44;;;;;;;115.72;19.35;;;7.00;99.90;;;;;;5090074;28;20040;-85
2022/12/25 06:34:10;;;;;;;85.53;18.98;;;7.10;99.90;;;;;;5107043;28;20039;-85
2022/12/25 06:36:37;;;;;;;82.72;18.15;;;7.10;99.90;;;;;;5089954;28;20036;-84
2022/12/25 06:39:04;;;;;;;84.95;18.23;;;7.10;99.90;;;;;;5090609;28;20044;-85
2022/12/25 06:41:30;;;;;;;74.45;17.95;;;7.10;99.90;;;;;;5089578;28;20573;-84
2022/12/25 06:44:00;;;;;;;86.10;17.73;;;7.10;99.90;;;;;;5089893;28;20044;-85
2022/12/25 06:46:28;;;;;;;89.53;18.83;;;7.10;99.90;;;;;;5089868;28;20084;-85
2022/12/25 06:48:57;;;;;;;72.10;18.10;;;7.10;99.90;;;;;;5089545;28;20671;-84
2022/12/25 06:51:29;;;;;;;75.75;17.38;;;7.10;99.90;;;;;;5090173;28;20037;-85
2022/12/25 06:53:57;;;;;;;75.65;17.60;;;7.10;99.90;;;;;;5089657;28;20052;-84
2022/12/25 06:56:26;;;;;;;67.43;17.70;;;7.20;99.90;;;;;;5090097;28;20123;-85
2022/12/25 06:58:55;;;;;;;76.38;18.00;;;7.10;99.90;;;;;;5095209;28;20516;-85
2022/12/25 07:01:28;;;;;;;83.90;18.33;;;7.20;99.90;;;;;;5110051;28;20036;-85
2022/12/25 07:03:57;;;;;;;66.07;17.30;;;7.20;99.90;;;;;;5109697;28;20052;-84
2022/12/25 07:06:24;;;;;;;79.00;18.60;;;7.20;99.90;;;;;;5126491;28;20075;-85
2022/12/25 07:08:51;;;;;;;74.55;17.83;;;7.20;99.90;;;;;;5073307;28;20063;-85
2022/12/25 07:11:18;;;;;;;107.50;21.13;;;7.20;99.90;;;;;;5089451;28;20040;-85
2022/12/25 07:13:45;;;;;;;67.97;16.98;;;7.20;99.90;;;;;;5106286;28;20048;-85
2022/12/25 07:16:13;;;;;;;62.53;16.83;;;7.20;99.90;;;;;;5106441;28;20055;-85
2022/12/25 07:18:40;;;;;;;48.90;16.25;;;7.30;99.90;;;;;;5072731;28;20385;-84
2022/12/25 07:21:10;;;;;;;72.10;17.15;;;7.30;99.90;;;;;;5089443;28;20412;-85
2022/12/25 07:23:36;;;;;;;62.85;17.17;;;7.30;99.90;;;;;;5105591;28;20040;-85
2022/12/25 07:26:03;;;;;;;54.88;15.88;;;7.30;99.90;;;;;;5106150;28;20132;-85
2022/12/25 07:28:30;;;;;;;58.80;14.23;;;7.30;99.90;;;;;;5089486;28;20090;-85
2022/12/25 07:31:14;;;;;;;49.72;15.00;;;7.30;99.90;;;;;;5089317;28;20037;-85
2022/12/25 07:33:41;;;;;;;41.72;14.60;;;7.30;99.90;;;;;;5072383;28;20036;-85
2022/12/25 07:36:10;;;;;;;62.05;15.77;;;7.30;99.90;;;;;;5072463;28;20033;-85
2022/12/25 07:38:36;;;;;;;69.95;15.27;;;7.40;99.90;;;;;;5072525;28;20072;-85
2022/12/25 07:41:06;;;;;;;46.45;14.65;;;7.40;99.90;;;;;;5072169;28;20071;-85
2022/12/25 07:43:32;;;;;;;49.45;14.75;;;7.40;99.90;;;;;;5100698;28;20059;-85
2022/12/25 07:46:00;;;;;;;56.33;14.40;;;7.40;99.90;;;;;;5127813;28;20044;-85
2022/12/25 07:48:27;;;;;;;59.58;15.38;;;7.40;99.90;;;;;;5100759;28;20067;-85
2022/12/25 07:51:06;;;;;;;72.47;15.95;;;7.40;99.90;;;;;;5111425;28;20035;-84
2022/12/25 07:53:33;;;;;;;66.90;16.80;;;7.40;99.90;;;;;;5126561;28;20051;-85
2022/12/25 07:56:20;;;;;;;66.20;16.50;;;7.40;99.90;;;;;;5125266;28;20413;-85
2022/12/25 07:58:47;;;;;;;;;;;7.40;99.90;;;;;;5104092;28;20431;-86
2022/12/25 08:01:20;;;;;;;57.80;14.63;;;7.40;99.90;;;;;;5138016;28;19965;-85
2022/12/25 08:04:00;;;;;;;56.60;14.98;;;7.40;99.90;;;;;;5108694;28;20103;-85
2022/12/25 08:06:33;;;;;;;46.25;14.70;;;7.40;99.90;;;;;;5109549;28;20050;-85
2022/12/25 08:09:08;;;;;;;39.00;14.23;;;7.40;99.90;;;;;;5088389;28;20045;-85
2022/12/25 08:11:36;;;;;;;50.47;15.55;;;7.40;99.90;;;;;;5091595;28;20496;-85
2022/12/25 08:14:07;;;;;;;48.67;15.23;;;7.40;99.90;;;;;;5108539;28;20059;-85
2022/12/25 08:16:34;;;;;;;41.75;15.13;;;7.40;99.90;;;;;;5116128;28;20496;-85
2022/12/25 08:19:01;;;;;;;41.65;14.52;;;7.40;99.90;;;;;;5072068;28;20044;-85
2022/12/25 08:21:28;;;;;;;43.78;14.82;;;7.40;99.90;;;;;;5089039;28;20558;-85
2022/12/25 08:23:54;;;;;;;50.60;14.52;;;7.50;99.90;;;;;;5075660;28;20040;-84
2022/12/25 08:26:22;;;;;;;38.80;13.73;;;7.50;99.90;;;;;;5072389;28;20044;-85
2022/12/25 08:28:50;;;;;;;33.58;13.15;;;7.50;99.90;;;;;;5088989;28;20040;-84
2022/12/25 08:31:23;;;;;;;44.13;12.80;;;7.50;99.90;;;;;;5112693;28;20111;-85
2022/12/25 08:33:52;;;;;;;37.42;13.38;;;7.50;99.90;;;;;;5119828;28;20033;-86
2022/12/25 08:36:19;;;;;;;37.72;14.23;;;7.50;99.90;;;;;;5100160;28;20527;-85
2022/12/25 08:38:46;;;;;;;42.90;13.27;;;7.50;99.90;;;;;;5090000;28;20048;-85
2022/12/25 08:41:14;;;;;;;33.25;13.50;;;7.50;99.90;;;;;;5086140;28;20041;-85
2022/12/25 08:43:41;;;;;;;33.90;12.48;;;7.50;99.90;;;;;;5089404;28;20047;-86
2022/12/25 08:46:08;;;;;;;38.70;13.10;;;7.60;99.90;;;;;;5101167;28;20040;-86
2022/12/25 08:48:35;;;;;;;34.95;13.30;;;7.60;99.90;;;;;;5073721;28;20071;-86
2022/12/25 08:51:03;;;;;;;44.42;12.20;;;7.60;99.90;;;;;;5089777;28;20033;-86
2022/12/25 08:53:29;;;;;;;38.78;13.40;;;7.60;99.90;;;;;;5128302;28;20048;-86
2022/12/25 08:55:58;;;;;;;36.67;13.93;;;7.60;99.90;;;;;;5085466;28;20040;-86
2022/12/25 08:58:25;;;;;;;35.90;13.00;;;7.60;99.90;;;;;;5110899;28;20040;-86
2022/12/25 09:00:52;;;;;;;32.47;10.20;;;7.60;99.90;;;;;;5102819;28;20047;-86
2022/12/25 09:03:19;;;;;;;32.97;10.90;;;7.60;99.90;;;;;;5149380;28;20044;-86
2022/12/25 09:05:46;;;;;;;30.27;12.35;;;7.60;99.90;;;;;;5075942;28;20072;-87
2022/12/25 09:08:13;;;;;;;31.42;12.07;;;7.60;99.90;;;;;;5091671;28;20047;-86
2022/12/25 09:10:41;;;;;;;34.85;12.18;;;7.60;99.90;;;;;;5098322;28;20120;-87
2022/12/25 09:13:08;;;;;;;30.55;11.13;;;7.70;99.90;;;;;;5121323;28;20377;-87
2022/12/25 09:15:37;;;;;;;29.80;11.50;;;7.70;99.90;;;;;;5120360;28;20048;-86
2022/12/25 09:18:04;;;;;;;32.08;12.35;;;7.70;99.90;;;;;;5129740;28;20090;-86
2022/12/25 09:20:32;;;;;;;29.10;11.10;;;7.60;99.90;;;;;;5130100;28;20074;-87
2022/12/25 09:22:58;;;;;;;31.63;10.93;;;7.70;99.90;;;;;;5101730;28;20425;-87
2022/12/25 09:25:25;;;;;;;35.97;10.93;;;7.70;99.90;;;;;;5097183;28;20046;-85
2022/12/25 09:27:52;;;;;;;32.50;10.60;;;7.70;99.90;;;;;;5100184;28;20460;-86
2022/12/25 09:30:18;;;;;;;23.48;10.32;;;7.60;99.90;;;;;;5090346;28;20070;-87
2022/12/25 09:32:45;;;;;;;23.95;10.18;;;7.70;99.90;;;;;;5116208;28;20055;-87
2022/12/25 09:35:13;;;;;;;27.75;10.93;;;7.60;99.90;;;;;;5132625;28;20440;-87
2022/12/25 09:37:39;;;;;;;29.25;10.30;;;7.70;99.90;;;;;;5098860;28;20489;-87
2022/12/25 09:40:07;;;;;;;30.60;10.32;;;7.70;99.90;;;;;;5089966;28;20048;-88
2022/12/25 09:42:34;;;;;;;24.13;10.23;;;7.70;99.90;;;;;;5082704;28;20028;-88
2022/12/25 09:45:10;;;;;;;25.95;9.90;;;7.70;99.90;;;;;;5090134;28;20092;-88
2022/12/25 09:47:40;;;;;;;24.45;9.65;;;7.70;99.90;;;;;;5113380;28;20145;-87
2022/12/25 09:50:16;;;;;;;24.73;9.25;;;7.60;99.90;;;;;;5096536;28;20043;-87
2022/12/25 09:52:59;;;;;;;22.75;9.65;;;7.70;99.90;;;;;;5091068;28;20060;-88
2022/12/25 09:55:30;;;;;;;27.00;9.15;;;7.60;99.90;;;;;;5091634;28;20044;-88
2022/12/25 09:58:01;;;;;;;25.90;9.20;;;7.60;99.90;;;;;;5105148;28;20075;-87
2022/12/25 10:00:37;;;;;;;22.45;9.02;;;7.60;99.90;;;;;;5110891;28;20067;-88
2022/12/25 10:03:21;;;;;;;18.38;8.25;;;7.60;99.90;;;;;;5110333;28;20054;-87
2022/12/25 10:06:15;;;;;;;22.77;9.07;;;7.60;99.90;;;;;;5117842;28;20035;-86
2022/12/25 10:09:10;;;;;;;20.73;8.75;;;7.70;99.90;;;;;;5139766;28;20436;-86
2022/12/25 10:11:39;;;;;;;26.25;9.60;;;7.60;99.90;;;;;;5126005;28;20035;-86
2022/12/25 10:14:28;;;;;;;22.75;8.85;;;7.60;99.90;;;;;;5119999;28;20042;-86
2022/12/25 10:17:21;;;;;;;23.77;8.88;;;7.60;99.90;;;;;;5131804;28;20040;-85
2022/12/25 10:20:09;;;;;;;22.13;8.68;;;7.70;99.90;;;;;;5113627;28;20427;-85
2022/12/25 10:22:43;;;;;;;27.70;9.32;;;7.70;99.90;;;;;;5118942;28;20554;-85
2022/12/25 10:25:20;;;;;;;28.58;8.80;;;7.70;99.90;;;;;;5118669;28;20043;-85
2022/12/25 10:27:54;;;;;;;24.30;9.20;;;7.80;99.90;;;;;;5113513;28;20044;-86
2022/12/25 10:30:23;;;;;;;24.13;8.75;;;7.80;99.90;;;;;;5126457;28;20500;-85
2022/12/25 10:32:51;;;;;;;19.10;8.57;;;7.80;99.90;;;;;;5096227;28;20035;-84
2022/12/25 10:35:21;;;;;;;21.67;8.57;;;7.80;99.90;;;;;;5113953;28;20047;-85
2022/12/25 10:37:59;;;;;;;16.33;8.40;;;7.80;99.90;;;;;;5131221;28;20039;-87
2022/12/25 10:40:45;;;;;;;19.35;9.77;;;7.80;99.90;;;;;;5127609;28;20040;-85
2022/12/25 10:43:19;;;;;;;22.25;7.90;;;7.80;99.90;;;;;;5115031;28;20131;-84
2022/12/25 10:45:48;;;;;;;13.80;7.85;;;7.80;99.90;;;;;;5103345;28;20038;-85
2022/12/25 10:48:29;;;;;;;18.45;8.18;;;7.80;99.90;;;;;;5138230;28;20040;-84
2022/12/25 10:50:56;;;;;;;23.33;8.10;;;7.90;99.90;;;;;;5109635;28;20036;-84
2022/12/25 10:53:28;;;;;;;26.88;7.65;;;7.80;99.90;;;;;;5092916;28;20523;-84
2022/12/25 10:56:00;;;;;;;17.88;7.75;;;7.90;99.90;;;;;;5093999;28;20044;-84
2022/12/25 10:58:28;;;;;;;18.90;7.50;;;7.80;99.90;;;;;;5115150;28;20827;-84
2022/12/25 11:01:06;;;;;;;20.60;7.82;;;7.90;99.90;;;;;;5110892;28;20518;-84
2022/12/25 11:03:38;;;;;;;16.27;7.03;;;7.90;99.90;;;;;;5078057;28;20043;-85
2022/12/25 11:06:19;;;;;;;18.90;8.07;;;7.90;99.90;;;;;;5108716;28;20120;-84
2022/12/25 11:09:01;;;;;;;23.17;8.05;;;7.90;99.90;;;;;;5094506;28;20040;-84
2022/12/25 11:11:29;;;;;;;18.13;7.63;;;7.90;99.90;;;;;;5109127;28;20032;-84
2022/12/25 11:13:59;;;;;;;18.95;8.30;;;8.00;99.90;;;;;;5113417;28;20036;-85
2022/12/25 11:16:29;;;;;;;18.38;7.07;;;8.00;99.90;;;;;;5113850;28;20042;-85
2022/12/25 11:18:57;;;;;;;23.85;8.27;;;8.00;99.90;;;;;;5116520;28;20097;-85
2022/12/25 11:21:27;;;;;;;22.20;8.65;;;8.10;99.90;;;;;;5121454;28;20097;-85
2022/12/25 11:24:00;;;;;;;19.55;8.00;;;8.10;99.90;;;;;;5122745;28;20048;-86
2022/12/25 11:26:29;;;;;;;17.65;8.13;;;8.10;99.90;;;;;;5115061;28;20036;-84
2022/12/25 11:28:57;;;;;;;14.32;7.25;;;8.10;99.90;;;;;;5115203;28;20093;-85
2022/12/25 11:31:30;;;;;;;27.63;9.30;;;8.20;99.90;;;;;;5099375;28;20039;-85
2022/12/25 11:34:06;;;;;;;19.45;7.88;;;8.20;99.90;;;;;;5125410;28;20403;-84
2022/12/25 11:36:45;;;;;;;18.75;8.35;;;8.20;99.90;;;;;;5122335;28;20405;-85
2022/12/25 11:39:23;;;;;;;20.00;8.70;;;8.20;99.90;;;;;;5102114;28;20125;-85
2022/12/25 11:42:31;;;;;;;22.08;7.93;;;8.20;99.90;;;;;;5109769;28;20047;-85
2022/12/25 11:45:16;;;;;;;22.40;8.55;;;8.30;99.90;;;;;;5103333;28;20032;-86
2022/12/25 11:47:57;;;;;;;19.85;8.35;;;8.30;99.90;;;;;;5100624;28;20035;-85
2022/12/25 11:50:30;;;;;;;19.02;8.50;;;8.30;99.90;;;;;;5126352;28;20075;-85
2022/12/25 11:53:09;;;;;;;16.10;7.85;;;8.40;99.90;;;;;;5111924;28;20519;-86
2022/12/25 11:55:41;;;;;;;18.70;7.50;;;8.30;99.90;;;;;;5109555;28;20044;-85
2022/12/25 11:58:24;;;;;;;16.50;7.75;;;8.40;99.90;;;;;;5109041;28;20711;-84
2022/12/25 12:00:53;;;;;;;21.63;7.40;;;8.40;99.90;;;;;;5092860;28;20048;-85
2022/12/25 12:03:35;;;;;;;15.95;6.72;;;8.40;99.90;;;;;;5105792;28;20139;-85
2022/12/25 12:06:31;;;;;;;18.00;7.53;;;8.40;99.90;;;;;;5105941;28;20043;-85
2022/12/25 12:09:33;;;;;;;20.60;7.93;;;8.40;99.90;;;;;;5111560;28;20492;-84
2022/12/25 12:12:14;;;;;;;16.30;7.22;;;8.40;99.90;;;;;;5091020;28;20488;-84
2022/12/25 12:15:03;;;;;;;18.20;8.15;;;8.50;99.90;;;;;;5116912;28;20131;-84
2022/12/25 12:17:30;;;;;;;21.67;8.50;;;8.50;99.90;;;;;;5105668;28;20031;-84
2022/12/25 12:19:57;;;;;;;16.92;8.38;;;8.50;99.90;;;;;;5087072;28;20040;-85
2022/12/25 12:22:26;;;;;;;15.13;7.35;;;8.40;99.90;;;;;;5095034;28;20047;-86
2022/12/25 12:25:03;;;;;;;20.55;8.07;;;8.40;99.90;;;;;;5132264;28;20814;-85
2022/12/25 12:27:33;;;;;;;18.92;7.80;;;8.40;99.90;;;;;;5126297;28;20062;-84
2022/12/25 12:30:00;;;;;;;18.48;7.50;;;8.40;99.90;;;;;;5133453;28;20046;-84
2022/12/25 12:32:43;;;;;;;24.27;9.70;;;8.40;99.90;;;;;;5115264;28;20402;-84
2022/12/25 12:35:13;;;;;;;19.27;7.75;;;8.40;99.90;;;;;;5112285;28;20040;-83
2022/12/25 12:37:41;;;;;;;32.15;10.02;;;8.40;99.90;;;;;;5112650;28;20040;-85
2022/12/25 12:40:29;;;;;;;17.02;8.23;;;8.40;99.90;;;;;;5096215;28;20040;-84
2022/12/25 12:42:55;;;;;;;16.85;7.05;;;8.40;99.90;;;;;;5092016;28;20127;-84
2022/12/25 12:45:29;;;;;;;22.55;7.93;;;8.30;99.90;;;;;;5075679;28;20147;-85
2022/12/25 12:47:57;;;;;;;21.85;9.18;;;8.40;99.90;;;;;;5092107;28;20488;-84
2022/12/25 12:50:33;;;;;;;12.93;7.97;;;8.30;99.90;;;;;;5075309;28;20419;-84
2022/12/25 12:53:20;;;;;;;17.63;8.00;;;8.30;99.90;;;;;;5108848;28;20065;-84
2022/12/25 12:55:47;;;;;;;14.73;7.53;;;8.30;99.90;;;;;;5120003;28;20115;-85
2022/12/25 12:58:48;;;;;;;16.05;7.95;;;8.30;99.90;;;;;;5078630;28;20150;-84
2022/12/25 13:02:02;;;;;;;21.15;7.70;;;8.30;99.90;;;;;;5114848;28;20059;-84
2022/12/25 13:04:42;;;;;;;15.02;7.53;;;8.30;99.90;;;;;;5100237;28;20050;-84
2022/12/25 13:07:24;;;;;;;14.55;6.95;;;8.30;99.90;;;;;;5115404;28;20047;-85
2022/12/25 13:10:00;;;;;;;15.77;7.30;;;8.30;99.90;;;;;;5137599;28;20039;-84
2022/12/25 13:12:27;;;;;;;17.90;7.32;;;8.30;99.90;;;;;;5138890;28;20066;-85
2022/12/25 13:14:54;;;;;;;16.42;7.75;;;8.30;99.90;;;;;;5098980;28;20036;-85
2022/12/25 13:17:24;;;;;;;15.25;7.88;;;8.30;99.90;;;;;;5102034;28;20032;-84
2022/12/25 13:19:55;;;;;;;18.67;7.63;;;8.30;99.90;;;;;;5132231;28;20043;-84
2022/12/25 13:22:24;;;;;;;15.27;7.20;;;8.30;99.90;;;;;;5096814;28;20040;-84
2022/12/25 13:24:56;;;;;;;17.75;7.68;;;8.30;99.90;;;;;;5124943;28;20043;-85
2022/12/25 13:27:26;;;;;;;17.02;6.78;;;8.30;99.90;;;;;;5074890;28;20047;-85
2022/12/25 13:29:53;;;;;;;22.30;6.82;;;8.30;99.90;;;;;;5132177;28;20040;-85
2022/12/25 13:32:24;;;;;;;17.67;7.25;;;8.30;99.90;;;;;;5091797;28;20610;-84
2022/12/25 13:34:52;;;;;;;14.35;6.45;;;8.30;99.90;;;;;;5112159;28;20048;-85
2022/12/25 13:37:22;;;;;;;14.38;5.95;;;8.30;99.90;;;;;;5129615;28;20105;-85
2022/12/25 13:40:00;;;;;;;14.13;6.95;;;8.30;99.90;;;;;;5115810;28;20046;-83
2022/12/25 13:42:30;;;;;;;22.35;8.55;;;8.30;99.90;;;;;;5131062;28;20557;-85
2022/12/25 13:45:06;;;;;;;15.13;7.25;;;8.30;99.90;;;;;;5119202;28;20036;-85
2022/12/25 13:47:44;;;;;;;16.88;6.10;;;8.30;99.90;;;;;;5125161;28;20063;-84
2022/12/25 13:50:19;;;;;;;15.57;6.57;;;8.30;99.90;;;;;;5118449;28;20583;-85
2022/12/25 13:52:46;;;;;;;17.05;6.20;;;8.30;99.90;;;;;;5131517;28;20079;-86
2022/12/25 13:55:22;;;;;;;14.05;5.70;;;8.30;99.90;;;;;;5096164;28;20036;-85
2022/12/25 13:57:54;;;;;;;13.65;6.50;;;8.30;99.90;;;;;;5133467;28;20043;-86
2022/12/25 14:00:32;;;;;;;20.15;6.80;;;8.30;99.90;;;;;;5114781;28;20040;-85
2022/12/25 14:02:59;;;;;;;14.38;6.60;;;8.20;99.90;;;;;;5134047;28;20036;-86
2022/12/25 14:05:30;;;;;;;22.10;6.40;;;8.20;99.90;;;;;;5099614;28;20059;-82
2022/12/25 14:07:59;;;;;;;16.08;6.70;;;8.20;99.90;;;;;;5127839;28;20042;-84
2022/12/25 14:10:33;;;;;;;19.45;6.53;;;8.20;99.90;;;;;;5109541;28;20040;-84
2022/12/25 14:13:04;;;;;;;11.57;5.35;;;8.20;99.90;;;;;;5110671;28;20123;-85
2022/12/25 14:15:35;;;;;;;17.77;6.70;;;8.20;99.90;;;;;;5110729;28;20040;-84
2022/12/25 14:18:02;;;;;;;17.27;6.07;;;8.20;99.90;;;;;;5110299;28;20728;-84
2022/12/25 14:20:52;;;;;;;16.83;5.97;;;8.20;99.90;;;;;;5077189;28;20044;-84
2022/12/25 14:23:19;;;;;;;19.13;6.47;;;8.10;99.90;;;;;;5110466;28;20044;-84
2022/12/25 14:25:46;;;;;;;14.10;6.45;;;8.20;99.90;;;;;;5110183;28;20047;-84
2022/12/25 14:28:24;;;;;;;19.85;6.47;;;8.10;99.90;;;;;;5110751;28;20089;-85
2022/12/25 14:30:52;;;;;;;13.05;5.75;;;8.10;99.90;;;;;;5110654;28;20070;-85
2022/12/25 14:33:23;;;;;;;11.35;5.72;;;8.10;99.90;;;;;;5073350;28;20493;-85
2022/12/25 14:35:51;;;;;;;15.85;6.32;;;8.10;99.90;;;;;;5089906;28;20493;-85
2022/12/25 14:38:28;;;;;;;12.48;5.78;;;8.10;99.90;;;;;;5090189;28;20550;-85
2022/12/25 14:41:03;;;;;;;16.38;6.28;;;8.10;99.90;;;;;;5106547;28;20036;-84